sensor_id;sensor_type;location;lat;lon;timestamp;P1;durP1;ratioP1;P2;durP2;ratioP2
11298;SDS011;5705;49.006;12.100;2022-08-14T00:01:34;6.40;;;5.90;;
11298;SDS011;5705;49.006;12.100;2022-08-14T00:04:03;6.67;;;5.57;;
11298;SDS011;5705;49.006;12.100;2022-08-14T00:06:51;5.90;;;5.50;;
11298;SDS011;5705;49.006;12.100;2022-08-14T00:09:20;6.40;;;5.90;;
11298;SDS011;5705;49.006;12.100;2022-08-14T00:11:49;6.40;;;5.90;;
11298;SDS011;5705;49.006;12.100;2022-08-14T00:14:18;6.40;;;5.93;;
11298;SDS011;5705;49.006;12.100;2022-08-14T00:16:47;6.77;;;6.17;;
11298;SDS011;5705;49.006;12.100;2022-08-14T00:19:21;6.30;;;5.77;;
11298;SDS011;5705;49.006;12.100;2022-08-14T00:21:52;6.47;;;5.97;;
11298;SDS011;5705;49.006;12.100;2022-08-14T00:24:21;6.47;;;5.90;;
11298;SDS011;5705;49.006;12.100;2022-08-14T00:26:56;5.93;;;5.53;;
11298;SDS011;5705;49.006;12.100;2022-08-14T00:29:28;6.73;;;5.93;;
11298;SDS011;5705;49.006;12.100;2022-08-14T00:32:06;7.10;;;6.47;;
11298;SDS011;5705;49.006;12.100;2022-08-14T00:34:54;6.73;;;6.23;;
11298;SDS011;5705;49.006;12.100;2022-08-14T00:37:26;6.67;;;6.17;;
11298;SDS011;5705;49.006;12.100;2022-08-14T00:39:58;7.00;;;6.30;;
11298;SDS011;5705;49.006;12.100;2022-08-14T00:42:26;6.53;;;6.03;;
11298;SDS011;5705;49.006;12.100;2022-08-14T00:45:15;6.53;;;6.03;;
11298;SDS011;5705;49.006;12.100;2022-08-14T00:47:47;6.70;;;6.20;;
11298;SDS011;5705;49.006;12.100;2022-08-14T00:50:16;7.10;;;6.40;;
11298;SDS011;5705;49.006;12.100;2022-08-14T00:52:47;6.30;;;5.90;;
11298;SDS011;5705;49.006;12.100;2022-08-14T00:55:19;6.50;;;5.93;;
11298;SDS011;5705;49.006;12.100;2022-08-14T00:57:48;7.20;;;6.60;;
11298;SDS011;5705;49.006;12.100;2022-08-14T01:00:37;6.73;;;6.23;;
11298;SDS011;5705;49.006;12.100;2022-08-14T01:03:22;7.67;;;7.07;;
11298;SDS011;5705;49.006;12.100;2022-08-14T01:05:56;6.83;;;6.33;;
11298;SDS011;5705;49.006;12.100;2022-08-14T01:08:27;6.33;;;5.83;;
11298;SDS011;5705;49.006;12.100;2022-08-14T01:11:17;6.73;;;6.23;;
11298;SDS011;5705;49.006;12.100;2022-08-14T01:13:45;6.97;;;6.37;;
11298;SDS011;5705;49.006;12.100;2022-08-14T01:16:35;7.17;;;6.57;;
11298;SDS011;5705;49.006;12.100;2022-08-14T01:19:03;6.47;;;6.03;;
11298;SDS011;5705;49.006;12.100;2022-08-14T01:21:49;6.57;;;5.97;;
11298;SDS011;5705;49.006;12.100;2022-08-14T01:24:18;6.30;;;5.70;;
11298;SDS011;5705;49.006;12.100;2022-08-14T01:26:56;7.07;;;6.40;;
11298;SDS011;5705;49.006;12.100;2022-08-14T01:29:25;6.77;;;6.17;;
11298;SDS011;5705;49.006;12.100;2022-08-14T01:32:15;5.97;;;5.37;;
11298;SDS011;5705;49.006;12.100;2022-08-14T01:34:48;7.37;;;6.47;;
11298;SDS011;5705;49.006;12.100;2022-08-14T01:37:38;7.50;;;6.97;;
11298;SDS011;5705;49.006;12.100;2022-08-14T01:40:10;7.87;;;6.87;;
11298;SDS011;5705;49.006;12.100;2022-08-14T01:42:45;7.20;;;6.60;;
11298;SDS011;5705;49.006;12.100;2022-08-14T01:45:12;6.97;;;6.37;;
11298;SDS011;5705;49.006;12.100;2022-08-14T01:47:50;7.20;;;6.23;;
11298;SDS011;5705;49.006;12.100;2022-08-14T01:50:29;6.43;;;5.97;;
11298;SDS011;5705;49.006;12.100;2022-08-14T01:53:00;9.27;;;7.00;;
11298;SDS011;5705;49.006;12.100;2022-08-14T01:55:29;8.13;;;6.07;;
11298;SDS011;5705;49.006;12.100;2022-08-14T01:57:58;7.03;;;6.53;;
11298;SDS011;5705;49.006;12.100;2022-08-14T02:00:46;8.53;;;6.90;;
11298;SDS011;5705;49.006;12.100;2022-08-14T02:03:19;8.00;;;7.27;;
11298;SDS011;5705;49.006;12.100;2022-08-14T02:05:48;7.63;;;7.03;;
11298;SDS011;5705;49.006;12.100;2022-08-14T02:08:17;7.50;;;6.80;;
11298;SDS011;5705;49.006;12.100;2022-08-14T02:10:47;7.37;;;6.83;;
11298;SDS011;5705;49.006;12.100;2022-08-14T02:13:35;7.10;;;6.60;;
11298;SDS011;5705;49.006;12.100;2022-08-14T02:16:08;7.03;;;6.53;;
11298;SDS011;5705;49.006;12.100;2022-08-14T02:18:48;7.50;;;6.90;;
11298;SDS011;5705;49.006;12.100;2022-08-14T02:21:16;7.33;;;6.63;;
11298;SDS011;5705;49.006;12.100;2022-08-14T02:23:50;6.50;;;6.00;;
11298;SDS011;5705;49.006;12.100;2022-08-14T02:26:20;7.07;;;6.57;;
11298;SDS011;5705;49.006;12.100;2022-08-14T02:28:56;6.93;;;6.40;;
11298;SDS011;5705;49.006;12.100;2022-08-14T02:31:28;6.87;;;6.37;;
11298;SDS011;5705;49.006;12.100;2022-08-14T02:34:10;7.03;;;6.53;;
11298;SDS011;5705;49.006;12.100;2022-08-14T02:36:52;7.57;;;6.73;;
11298;SDS011;5705;49.006;12.100;2022-08-14T02:39:35;7.23;;;6.63;;
11298;SDS011;5705;49.006;12.100;2022-08-14T02:42:04;6.60;;;6.10;;
11298;SDS011;5705;49.006;12.100;2022-08-14T02:44:39;7.07;;;6.47;;
11298;SDS011;5705;49.006;12.100;2022-08-14T02:47:14;7.37;;;6.77;;
11298;SDS011;5705;49.006;12.100;2022-08-14T02:49:45;7.00;;;6.50;;
11298;SDS011;5705;49.006;12.100;2022-08-14T02:52:20;7.07;;;6.40;;
11298;SDS011;5705;49.006;12.100;2022-08-14T02:55:09;7.30;;;6.70;;
11298;SDS011;5705;49.006;12.100;2022-08-14T02:57:45;7.10;;;6.50;;
11298;SDS011;5705;49.006;12.100;2022-08-14T03:00:23;8.50;;;7.60;;
11298;SDS011;5705;49.006;12.100;2022-08-14T03:02:52;7.30;;;6.60;;
11298;SDS011;5705;49.006;12.100;2022-08-14T03:05:24;8.07;;;7.37;;
11298;SDS011;5705;49.006;12.100;2022-08-14T03:08:05;8.70;;;8.00;;
11298;SDS011;5705;49.006;12.100;2022-08-14T03:10:34;7.77;;;7.17;;
11298;SDS011;5705;49.006;12.100;2022-08-14T03:13:07;7.20;;;6.60;;
11298;SDS011;5705;49.006;12.100;2022-08-14T03:15:45;7.90;;;7.20;;
11298;SDS011;5705;49.006;12.100;2022-08-14T03:18:23;7.93;;;7.33;;
11298;SDS011;5705;49.006;12.100;2022-08-14T03:20:58;7.83;;;7.17;;
11298;SDS011;5705;49.006;12.100;2022-08-14T03:23:27;8.10;;;7.30;;
11298;SDS011;5705;49.006;12.100;2022-08-14T03:26:03;8.00;;;7.10;;
11298;SDS011;5705;49.006;12.100;2022-08-14T03:28:32;7.47;;;6.87;;
11298;SDS011;5705;49.006;12.100;2022-08-14T03:31:02;8.57;;;7.30;;
11298;SDS011;5705;49.006;12.100;2022-08-14T03:33:38;8.17;;;7.47;;
11298;SDS011;5705;49.006;12.100;2022-08-14T03:36:07;9.23;;;7.33;;
11298;SDS011;5705;49.006;12.100;2022-08-14T03:38:58;8.30;;;7.60;;
11298;SDS011;5705;49.006;12.100;2022-08-14T03:41:45;8.60;;;7.07;;
11298;SDS011;5705;49.006;12.100;2022-08-14T03:44:12;7.47;;;6.87;;
11298;SDS011;5705;49.006;12.100;2022-08-14T03:47:00;10.43;;;9.43;;
11298;SDS011;5705;49.006;12.100;2022-08-14T03:49:28;8.17;;;7.27;;
11298;SDS011;5705;49.006;12.100;2022-08-14T03:51:56;8.47;;;7.70;;
11298;SDS011;5705;49.006;12.100;2022-08-14T03:54:26;7.27;;;6.67;;
11298;SDS011;5705;49.006;12.100;2022-08-14T03:56:55;7.93;;;7.23;;
11298;SDS011;5705;49.006;12.100;2022-08-14T03:59:28;8.40;;;7.70;;
11298;SDS011;5705;49.006;12.100;2022-08-14T04:01:56;8.37;;;7.57;;
11298;SDS011;5705;49.006;12.100;2022-08-14T04:04:27;7.60;;;7.00;;
11298;SDS011;5705;49.006;12.100;2022-08-14T04:06:56;7.90;;;7.30;;
11298;SDS011;5705;49.006;12.100;2022-08-14T04:09:24;8.20;;;7.50;;
11298;SDS011;5705;49.006;12.100;2022-08-14T04:11:52;7.93;;;7.33;;
11298;SDS011;5705;49.006;12.100;2022-08-14T04:14:24;8.47;;;7.67;;
11298;SDS011;5705;49.006;12.100;2022-08-14T04:16:52;7.37;;;6.77;;
11298;SDS011;5705;49.006;12.100;2022-08-14T04:19:20;10.13;;;8.70;;
11298;SDS011;5705;49.006;12.100;2022-08-14T04:21:49;8.47;;;7.77;;
11298;SDS011;5705;49.006;12.100;2022-08-14T04:24:29;8.07;;;7.20;;
11298;SDS011;5705;49.006;12.100;2022-08-14T04:27:04;7.80;;;7.20;;
11298;SDS011;5705;49.006;12.100;2022-08-14T04:29:36;8.37;;;7.67;;
11298;SDS011;5705;49.006;12.100;2022-08-14T04:32:05;8.00;;;7.40;;
11298;SDS011;5705;49.006;12.100;2022-08-14T04:34:54;8.80;;;8.10;;
11298;SDS011;5705;49.006;12.100;2022-08-14T04:37:22;9.80;;;8.13;;
11298;SDS011;5705;49.006;12.100;2022-08-14T04:40:10;12.27;;;10.00;;
11298;SDS011;5705;49.006;12.100;2022-08-14T04:42:56;10.27;;;9.13;;
11298;SDS011;5705;49.006;12.100;2022-08-14T04:45:44;9.00;;;8.20;;
11298;SDS011;5705;49.006;12.100;2022-08-14T04:48:16;10.20;;;9.17;;
11298;SDS011;5705;49.006;12.100;2022-08-14T04:51:07;9.20;;;8.40;;
11298;SDS011;5705;49.006;12.100;2022-08-14T04:53:36;9.73;;;8.83;;
11298;SDS011;5705;49.006;12.100;2022-08-14T04:56:08;9.50;;;8.70;;
11298;SDS011;5705;49.006;12.100;2022-08-14T04:58:58;9.00;;;8.30;;
11298;SDS011;5705;49.006;12.100;2022-08-14T05:01:37;9.47;;;8.57;;
11298;SDS011;5705;49.006;12.100;2022-08-14T05:04:10;9.30;;;8.50;;
11298;SDS011;5705;49.006;12.100;2022-08-14T05:06:41;8.67;;;7.80;;
11298;SDS011;5705;49.006;12.100;2022-08-14T05:09:09;8.80;;;8.10;;
11298;SDS011;5705;49.006;12.100;2022-08-14T05:11:39;9.13;;;8.40;;
11298;SDS011;5705;49.006;12.100;2022-08-14T05:14:09;8.40;;;7.77;;
11298;SDS011;5705;49.006;12.100;2022-08-14T05:16:59;8.80;;;8.10;;
11298;SDS011;5705;49.006;12.100;2022-08-14T05:19:27;9.67;;;8.87;;
11298;SDS011;5705;49.006;12.100;2022-08-14T05:21:57;8.63;;;7.83;;
11298;SDS011;5705;49.006;12.100;2022-08-14T05:24:44;7.70;;;7.00;;
11298;SDS011;5705;49.006;12.100;2022-08-14T05:27:15;8.63;;;7.93;;
11298;SDS011;5705;49.006;12.100;2022-08-14T05:29:49;8.33;;;7.53;;
11298;SDS011;5705;49.006;12.100;2022-08-14T05:32:22;8.70;;;7.90;;
11298;SDS011;5705;49.006;12.100;2022-08-14T05:34:53;8.90;;;8.00;;
11298;SDS011;5705;49.006;12.100;2022-08-14T05:37:24;8.30;;;7.50;;
11298;SDS011;5705;49.006;12.100;2022-08-14T05:39:53;8.87;;;8.03;;
11298;SDS011;5705;49.006;12.100;2022-08-14T05:42:21;8.30;;;7.50;;
11298;SDS011;5705;49.006;12.100;2022-08-14T05:44:57;9.00;;;8.10;;
11298;SDS011;5705;49.006;12.100;2022-08-14T05:47:26;10.57;;;9.67;;
11298;SDS011;5705;49.006;12.100;2022-08-14T05:50:06;9.10;;;8.20;;
11298;SDS011;5705;49.006;12.100;2022-08-14T05:52:44;8.97;;;8.17;;
11298;SDS011;5705;49.006;12.100;2022-08-14T05:55:13;9.47;;;8.20;;
11298;SDS011;5705;49.006;12.100;2022-08-14T05:57:45;8.40;;;7.80;;
11298;SDS011;5705;49.006;12.100;2022-08-14T06:00:17;8.73;;;7.93;;
11298;SDS011;5705;49.006;12.100;2022-08-14T06:02:56;7.60;;;7.00;;
11298;SDS011;5705;49.006;12.100;2022-08-14T06:05:25;8.63;;;7.93;;
11298;SDS011;5705;49.006;12.100;2022-08-14T06:07:54;7.77;;;7.13;;
11298;SDS011;5705;49.006;12.100;2022-08-14T06:10:23;8.50;;;7.70;;
11298;SDS011;5705;49.006;12.100;2022-08-14T06:12:53;9.20;;;8.30;;
11298;SDS011;5705;49.006;12.100;2022-08-14T06:15:30;7.97;;;7.27;;
11298;SDS011;5705;49.006;12.100;2022-08-14T06:17:59;7.23;;;6.73;;
11298;SDS011;5705;49.006;12.100;2022-08-14T06:20:28;8.20;;;7.50;;
11298;SDS011;5705;49.006;12.100;2022-08-14T06:22:59;7.83;;;7.13;;
11298;SDS011;5705;49.006;12.100;2022-08-14T06:25:27;7.00;;;6.50;;
11298;SDS011;5705;49.006;12.100;2022-08-14T06:27:55;7.63;;;7.03;;
11298;SDS011;5705;49.006;12.100;2022-08-14T06:30:31;8.50;;;7.80;;
11298;SDS011;5705;49.006;12.100;2022-08-14T06:33:14;6.70;;;6.20;;
11298;SDS011;5705;49.006;12.100;2022-08-14T06:35:43;7.40;;;6.70;;
11298;SDS011;5705;49.006;12.100;2022-08-14T06:38:13;7.23;;;6.70;;
11298;SDS011;5705;49.006;12.100;2022-08-14T06:40:42;8.20;;;7.53;;
11298;SDS011;5705;49.006;12.100;2022-08-14T06:43:11;8.37;;;7.67;;
11298;SDS011;5705;49.006;12.100;2022-08-14T06:45:41;7.90;;;7.20;;
11298;SDS011;5705;49.006;12.100;2022-08-14T06:48:21;7.23;;;6.67;;
11298;SDS011;5705;49.006;12.100;2022-08-14T06:50:51;7.70;;;7.10;;
11298;SDS011;5705;49.006;12.100;2022-08-14T06:53:19;7.23;;;6.63;;
11298;SDS011;5705;49.006;12.100;2022-08-14T06:55:53;6.80;;;6.20;;
11298;SDS011;5705;49.006;12.100;2022-08-14T06:58:23;6.77;;;6.20;;
11298;SDS011;5705;49.006;12.100;2022-08-14T07:00:57;7.17;;;6.67;;
11298;SDS011;5705;49.006;12.100;2022-08-14T07:03:53;6.80;;;6.30;;
11298;SDS011;5705;49.006;12.100;2022-08-14T07:06:50;6.60;;;6.07;;
11298;SDS011;5705;49.006;12.100;2022-08-14T07:09:24;7.03;;;6.33;;
11298;SDS011;5705;49.006;12.100;2022-08-14T07:11:53;6.00;;;5.60;;
11298;SDS011;5705;49.006;12.100;2022-08-14T07:14:22;6.23;;;5.73;;
11298;SDS011;5705;49.006;12.100;2022-08-14T07:16:51;6.30;;;5.80;;
11298;SDS011;5705;49.006;12.100;2022-08-14T07:19:20;6.37;;;5.83;;
11298;SDS011;5705;49.006;12.100;2022-08-14T07:21:48;5.67;;;5.17;;
11298;SDS011;5705;49.006;12.100;2022-08-14T07:24:16;5.33;;;4.93;;
11298;SDS011;5705;49.006;12.100;2022-08-14T07:26:51;6.07;;;5.57;;
11298;SDS011;5705;49.006;12.100;2022-08-14T07:29:19;5.40;;;5.00;;
11298;SDS011;5705;49.006;12.100;2022-08-14T07:31:51;6.40;;;5.90;;
11298;SDS011;5705;49.006;12.100;2022-08-14T07:34:20;6.43;;;5.97;;
11298;SDS011;5705;49.006;12.100;2022-08-14T07:37:02;6.70;;;6.13;;
11298;SDS011;5705;49.006;12.100;2022-08-14T07:39:31;5.57;;;5.17;;
11298;SDS011;5705;49.006;12.100;2022-08-14T07:42:00;6.23;;;5.73;;
11298;SDS011;5705;49.006;12.100;2022-08-14T07:44:28;6.83;;;6.20;;
11298;SDS011;5705;49.006;12.100;2022-08-14T07:47:11;6.43;;;5.97;;
11298;SDS011;5705;49.006;12.100;2022-08-14T07:49:43;7.23;;;6.63;;
11298;SDS011;5705;49.006;12.100;2022-08-14T07:52:21;6.27;;;5.87;;
11298;SDS011;5705;49.006;12.100;2022-08-14T07:54:56;5.53;;;5.13;;
11298;SDS011;5705;49.006;12.100;2022-08-14T07:57:24;5.90;;;5.50;;
11298;SDS011;5705;49.006;12.100;2022-08-14T07:59:52;6.40;;;5.97;;
11298;SDS011;5705;49.006;12.100;2022-08-14T08:02:20;6.10;;;5.60;;
11298;SDS011;5705;49.006;12.100;2022-08-14T08:04:50;7.53;;;7.03;;
11298;SDS011;5705;49.006;12.100;2022-08-14T08:07:25;6.40;;;5.90;;
11298;SDS011;5705;49.006;12.100;2022-08-14T08:09:56;6.13;;;5.73;;
11298;SDS011;5705;49.006;12.100;2022-08-14T08:12:26;6.87;;;6.37;;
11298;SDS011;5705;49.006;12.100;2022-08-14T08:14:57;7.07;;;6.37;;
11298;SDS011;5705;49.006;12.100;2022-08-14T08:17:31;6.80;;;6.30;;
11298;SDS011;5705;49.006;12.100;2022-08-14T08:20:11;6.40;;;6.00;;
11298;SDS011;5705;49.006;12.100;2022-08-14T08:22:45;6.10;;;5.60;;
11298;SDS011;5705;49.006;12.100;2022-08-14T08:25:21;6.37;;;5.97;;
11298;SDS011;5705;49.006;12.100;2022-08-14T08:27:53;6.00;;;5.60;;
11298;SDS011;5705;49.006;12.100;2022-08-14T08:30:21;6.27;;;5.83;;
11298;SDS011;5705;49.006;12.100;2022-08-14T08:32:50;6.30;;;5.90;;
11298;SDS011;5705;49.006;12.100;2022-08-14T08:35:21;5.67;;;5.13;;
11298;SDS011;5705;49.006;12.100;2022-08-14T08:38:11;5.37;;;5.07;;
11298;SDS011;5705;49.006;12.100;2022-08-14T08:41:00;5.80;;;5.30;;
11298;SDS011;5705;49.006;12.100;2022-08-14T08:43:29;6.43;;;5.93;;
11298;SDS011;5705;49.006;12.100;2022-08-14T08:46:01;5.57;;;5.07;;
11298;SDS011;5705;49.006;12.100;2022-08-14T08:48:30;5.60;;;5.13;;
11298;SDS011;5705;49.006;12.100;2022-08-14T08:51:20;5.00;;;4.63;;
11298;SDS011;5705;49.006;12.100;2022-08-14T08:53:56;4.32;;;4.10;;
11298;SDS011;5705;49.006;12.100;2022-08-14T08:56:32;5.13;;;4.83;;
11298;SDS011;5705;49.006;12.100;2022-08-14T08:59:15;5.67;;;5.27;;
11298;SDS011;5705;49.006;12.100;2022-08-14T09:01:48;4.53;;;4.13;;
11298;SDS011;5705;49.006;12.100;2022-08-14T09:04:21;4.83;;;4.53;;
11298;SDS011;5705;49.006;12.100;2022-08-14T09:06:50;5.30;;;4.90;;
11298;SDS011;5705;49.006;12.100;2022-08-14T09:09:36;4.85;;;4.45;;
11298;SDS011;5705;49.006;12.100;2022-08-14T09:12:24;5.57;;;5.15;;
11298;SDS011;5705;49.006;12.100;2022-08-14T09:14:59;4.97;;;4.68;;
11298;SDS011;5705;49.006;12.100;2022-08-14T09:17:29;6.10;;;5.60;;
11298;SDS011;5705;49.006;12.100;2022-08-14T09:19:59;5.80;;;5.40;;
11298;SDS011;5705;49.006;12.100;2022-08-14T09:22:30;5.22;;;4.90;;
11298;SDS011;5705;49.006;12.100;2022-08-14T09:25:07;4.93;;;4.63;;
11298;SDS011;5705;49.006;12.100;2022-08-14T09:27:35;4.70;;;4.30;;
11298;SDS011;5705;49.006;12.100;2022-08-14T09:30:05;4.47;;;4.03;;
11298;SDS011;5705;49.006;12.100;2022-08-14T09:32:57;5.05;;;4.65;;
11298;SDS011;5705;49.006;12.100;2022-08-14T09:35:42;4.55;;;4.25;;
11298;SDS011;5705;49.006;12.100;2022-08-14T09:38:27;4.15;;;3.95;;
11298;SDS011;5705;49.006;12.100;2022-08-14T09:41:02;4.40;;;4.10;;
11298;SDS011;5705;49.006;12.100;2022-08-14T09:43:39;4.57;;;4.20;;
11298;SDS011;5705;49.006;12.100;2022-08-14T09:46:10;4.18;;;3.85;;
11298;SDS011;5705;49.006;12.100;2022-08-14T09:48:56;4.75;;;4.45;;
11298;SDS011;5705;49.006;12.100;2022-08-14T09:51:24;4.32;;;4.13;;
11298;SDS011;5705;49.006;12.100;2022-08-14T09:54:11;3.63;;;3.42;;
11298;SDS011;5705;49.006;12.100;2022-08-14T09:56:48;4.18;;;3.95;;
11298;SDS011;5705;49.006;12.100;2022-08-14T09:59:24;5.60;;;3.67;;
11298;SDS011;5705;49.006;12.100;2022-08-14T10:01:57;4.13;;;3.83;;
11298;SDS011;5705;49.006;12.100;2022-08-14T10:04:25;4.05;;;3.75;;
11298;SDS011;5705;49.006;12.100;2022-08-14T10:07:01;3.58;;;3.38;;
11298;SDS011;5705;49.006;12.100;2022-08-14T10:09:30;3.80;;;3.50;;
11298;SDS011;5705;49.006;12.100;2022-08-14T10:12:00;4.30;;;3.90;;
11298;SDS011;5705;49.006;12.100;2022-08-14T10:14:32;3.78;;;3.58;;
11298;SDS011;5705;49.006;12.100;2022-08-14T10:17:02;3.53;;;3.33;;
11298;SDS011;5705;49.006;12.100;2022-08-14T10:19:33;3.90;;;3.60;;
11298;SDS011;5705;49.006;12.100;2022-08-14T10:22:03;3.33;;;3.13;;
11298;SDS011;5705;49.006;12.100;2022-08-14T10:24:54;3.20;;;3.00;;
11298;SDS011;5705;49.006;12.100;2022-08-14T10:27:23;3.50;;;3.30;;
11298;SDS011;5705;49.006;12.100;2022-08-14T10:29:52;3.42;;;3.13;;
11298;SDS011;5705;49.006;12.100;2022-08-14T10:32:23;3.58;;;3.38;;
11298;SDS011;5705;49.006;12.100;2022-08-14T10:35:02;3.50;;;3.30;;
11298;SDS011;5705;49.006;12.100;2022-08-14T10:37:36;3.10;;;2.90;;
11298;SDS011;5705;49.006;12.100;2022-08-14T10:40:07;3.33;;;3.13;;
11298;SDS011;5705;49.006;12.100;2022-08-14T10:42:55;3.40;;;3.20;;
11298;SDS011;5705;49.006;12.100;2022-08-14T10:45:29;3.78;;;3.30;;
11298;SDS011;5705;49.006;12.100;2022-08-14T10:48:01;3.83;;;3.50;;
11298;SDS011;5705;49.006;12.100;2022-08-14T10:50:36;4.35;;;4.05;;
11298;SDS011;5705;49.006;12.100;2022-08-14T10:53:12;3.50;;;3.30;;
11298;SDS011;5705;49.006;12.100;2022-08-14T10:55:41;4.45;;;4.15;;
11298;SDS011;5705;49.006;12.100;2022-08-14T10:58:11;3.47;;;3.28;;
11298;SDS011;5705;49.006;12.100;2022-08-14T11:00:53;3.90;;;3.60;;
11298;SDS011;5705;49.006;12.100;2022-08-14T11:03:22;3.65;;;3.35;;
11298;SDS011;5705;49.006;12.100;2022-08-14T11:06:09;3.47;;;3.28;;
11298;SDS011;5705;49.006;12.100;2022-08-14T11:08:39;3.80;;;3.60;;
11298;SDS011;5705;49.006;12.100;2022-08-14T11:11:12;4.22;;;3.92;;
11298;SDS011;5705;49.006;12.100;2022-08-14T11:13:40;4.45;;;4.15;;
11298;SDS011;5705;49.006;12.100;2022-08-14T11:16:11;4.32;;;4.03;;
11298;SDS011;5705;49.006;12.100;2022-08-14T11:18:43;4.60;;;4.30;;
11298;SDS011;5705;49.006;12.100;2022-08-14T11:21:18;5.28;;;4.88;;
11298;SDS011;5705;49.006;12.100;2022-08-14T11:23:48;4.93;;;4.00;;
11298;SDS011;5705;49.006;12.100;2022-08-14T11:26:20;4.05;;;3.75;;
11298;SDS011;5705;49.006;12.100;2022-08-14T11:28:50;3.63;;;3.42;;
11298;SDS011;5705;49.006;12.100;2022-08-14T11:31:20;4.15;;;3.85;;
11298;SDS011;5705;49.006;12.100;2022-08-14T11:33:50;4.28;;;3.78;;
11298;SDS011;5705;49.006;12.100;2022-08-14T11:36:24;3.92;;;3.72;;
11298;SDS011;5705;49.006;12.100;2022-08-14T11:39:17;4.07;;;3.78;;
11298;SDS011;5705;49.006;12.100;2022-08-14T11:42:01;3.17;;;2.97;;
11298;SDS011;5705;49.006;12.100;2022-08-14T11:44:49;4.00;;;3.70;;
11298;SDS011;5705;49.006;12.100;2022-08-14T11:47:21;3.97;;;3.65;;
11298;SDS011;5705;49.006;12.100;2022-08-14T11:49:49;4.53;;;4.03;;
11298;SDS011;5705;49.006;12.100;2022-08-14T11:52:17;3.85;;;3.65;;
11298;SDS011;5705;49.006;12.100;2022-08-14T11:54:55;5.10;;;4.40;;
11298;SDS011;5705;49.006;12.100;2022-08-14T11:57:25;4.22;;;3.92;;
11298;SDS011;5705;49.006;12.100;2022-08-14T11:59:59;4.13;;;3.83;;
11298;SDS011;5705;49.006;12.100;2022-08-14T12:02:28;3.95;;;3.53;;
11298;SDS011;5705;49.006;12.100;2022-08-14T12:05:16;3.63;;;3.33;;
11298;SDS011;5705;49.006;12.100;2022-08-14T12:07:55;3.80;;;3.50;;
11298;SDS011;5705;49.006;12.100;2022-08-14T12:10:31;3.97;;;3.78;;
11298;SDS011;5705;49.006;12.100;2022-08-14T12:13:13;4.03;;;3.70;;
11298;SDS011;5705;49.006;12.100;2022-08-14T12:15:43;4.20;;;3.90;;
11298;SDS011;5705;49.006;12.100;2022-08-14T12:18:11;4.03;;;3.78;;
11298;SDS011;5705;49.006;12.100;2022-08-14T12:20:45;4.07;;;3.70;;
11298;SDS011;5705;49.006;12.100;2022-08-14T12:23:19;3.60;;;3.40;;
11298;SDS011;5705;49.006;12.100;2022-08-14T12:25:48;3.63;;;3.42;;
11298;SDS011;5705;49.006;12.100;2022-08-14T12:28:37;4.28;;;3.90;;
11298;SDS011;5705;49.006;12.100;2022-08-14T12:31:25;4.25;;;3.70;;
11298;SDS011;5705;49.006;12.100;2022-08-14T12:34:02;3.72;;;3.53;;
11298;SDS011;5705;49.006;12.100;2022-08-14T12:36:35;4.07;;;3.88;;
11298;SDS011;5705;49.006;12.100;2022-08-14T12:39:06;4.05;;;3.75;;
11298;SDS011;5705;49.006;12.100;2022-08-14T12:41:47;3.80;;;3.50;;
11298;SDS011;5705;49.006;12.100;2022-08-14T12:44:29;3.45;;;3.25;;
11298;SDS011;5705;49.006;12.100;2022-08-14T12:47:01;3.65;;;3.35;;
11298;SDS011;5705;49.006;12.100;2022-08-14T12:49:31;3.60;;;3.22;;
11298;SDS011;5705;49.006;12.100;2022-08-14T12:52:00;3.85;;;3.65;;
11298;SDS011;5705;49.006;12.100;2022-08-14T12:54:29;3.90;;;3.60;;
11298;SDS011;5705;49.006;12.100;2022-08-14T12:57:04;3.90;;;3.70;;
11298;SDS011;5705;49.006;12.100;2022-08-14T12:59:34;4.47;;;4.07;;
11298;SDS011;5705;49.006;12.100;2022-08-14T13:02:17;3.67;;;3.47;;
11298;SDS011;5705;49.006;12.100;2022-08-14T13:04:52;4.38;;;4.07;;
11298;SDS011;5705;49.006;12.100;2022-08-14T13:07:21;3.25;;;3.05;;
11298;SDS011;5705;49.006;12.100;2022-08-14T13:09:52;4.07;;;3.80;;
11298;SDS011;5705;49.006;12.100;2022-08-14T13:12:21;4.28;;;3.97;;
11298;SDS011;5705;49.006;12.100;2022-08-14T13:15:04;3.42;;;3.22;;
11298;SDS011;5705;49.006;12.100;2022-08-14T13:17:38;3.50;;;3.30;;
11298;SDS011;5705;49.006;12.100;2022-08-14T13:20:08;3.97;;;3.75;;
11298;SDS011;5705;49.006;12.100;2022-08-14T13:22:50;3.78;;;3.47;;
11298;SDS011;5705;49.006;12.100;2022-08-14T13:25:22;3.67;;;3.47;;
11298;SDS011;5705;49.006;12.100;2022-08-14T13:27:51;4.00;;;3.80;;
11298;SDS011;5705;49.006;12.100;2022-08-14T13:30:24;4.38;;;3.97;;
11298;SDS011;5705;49.006;12.100;2022-08-14T13:32:53;4.38;;;4.10;;
11298;SDS011;5705;49.006;12.100;2022-08-14T13:35:23;4.05;;;3.75;;
11298;SDS011;5705;49.006;12.100;2022-08-14T13:37:52;4.25;;;3.95;;
11298;SDS011;5705;49.006;12.100;2022-08-14T13:40:21;3.70;;;3.50;;
11298;SDS011;5705;49.006;12.100;2022-08-14T13:42:55;4.03;;;3.67;;
11298;SDS011;5705;49.006;12.100;2022-08-14T13:45:24;3.80;;;3.53;;
11298;SDS011;5705;49.006;12.100;2022-08-14T13:48:13;4.90;;;4.50;;
11298;SDS011;5705;49.006;12.100;2022-08-14T13:50:58;5.07;;;4.78;;
11298;SDS011;5705;49.006;12.100;2022-08-14T13:53:28;5.13;;;4.45;;
11298;SDS011;5705;49.006;12.100;2022-08-14T13:55:58;4.80;;;4.40;;
11298;SDS011;5705;49.006;12.100;2022-08-14T13:58:27;4.72;;;4.35;;
11298;SDS011;5705;49.006;12.100;2022-08-14T14:01:02;4.88;;;4.57;;
11298;SDS011;5705;49.006;12.100;2022-08-14T14:03:33;4.80;;;4.40;;
11298;SDS011;5705;49.006;12.100;2022-08-14T14:06:03;4.60;;;4.30;;
11298;SDS011;5705;49.006;12.100;2022-08-14T14:08:32;4.95;;;4.20;;
11298;SDS011;5705;49.006;12.100;2022-08-14T14:11:09;4.80;;;4.50;;
11298;SDS011;5705;49.006;12.100;2022-08-14T14:13:41;5.78;;;5.38;;
11298;SDS011;5705;49.006;12.100;2022-08-14T14:16:12;4.63;;;4.40;;
11298;SDS011;5705;49.006;12.100;2022-08-14T14:18:55;4.65;;;4.35;;
11298;SDS011;5705;49.006;12.100;2022-08-14T14:21:35;4.38;;;4.15;;
11298;SDS011;5705;49.006;12.100;2022-08-14T14:24:05;4.97;;;4.57;;
11298;SDS011;5705;49.006;12.100;2022-08-14T14:26:42;4.80;;;4.50;;
11298;SDS011;5705;49.006;12.100;2022-08-14T14:29:11;4.65;;;4.35;;
11298;SDS011;5705;49.006;12.100;2022-08-14T14:31:43;4.65;;;4.22;;
11298;SDS011;5705;49.006;12.100;2022-08-14T14:34:15;3.65;;;3.45;;
11298;SDS011;5705;49.006;12.100;2022-08-14T14:36:55;4.20;;;3.90;;
11298;SDS011;5705;49.006;12.100;2022-08-14T14:39:31;4.47;;;4.18;;
11298;SDS011;5705;49.006;12.100;2022-08-14T14:42:20;4.25;;;3.92;;
11298;SDS011;5705;49.006;12.100;2022-08-14T14:44:59;4.47;;;3.90;;
11298;SDS011;5705;49.006;12.100;2022-08-14T14:47:32;4.68;;;4.28;;
11298;SDS011;5705;49.006;12.100;2022-08-14T14:50:01;4.82;;;4.55;;
11298;SDS011;5705;49.006;12.100;2022-08-14T14:52:30;4.85;;;4.55;;
11298;SDS011;5705;49.006;12.100;2022-08-14T14:55:05;4.50;;;4.20;;
11298;SDS011;5705;49.006;12.100;2022-08-14T14:57:34;4.50;;;4.10;;
11298;SDS011;5705;49.006;12.100;2022-08-14T15:00:03;4.50;;;4.20;;
11298;SDS011;5705;49.006;12.100;2022-08-14T15:02:41;4.43;;;4.13;;
11298;SDS011;5705;49.006;12.100;2022-08-14T15:05:12;4.68;;;4.28;;
11298;SDS011;5705;49.006;12.100;2022-08-14T15:07:41;4.43;;;4.10;;
11298;SDS011;5705;49.006;12.100;2022-08-14T15:10:10;3.83;;;3.60;;
11298;SDS011;5705;49.006;12.100;2022-08-14T15:12:55;4.82;;;4.43;;
11298;SDS011;5705;49.006;12.100;2022-08-14T15:15:28;4.10;;;3.80;;
11298;SDS011;5705;49.006;12.100;2022-08-14T15:17:59;4.40;;;4.10;;
11298;SDS011;5705;49.006;12.100;2022-08-14T15:20:27;4.15;;;3.85;;
11298;SDS011;5705;49.006;12.100;2022-08-14T15:22:56;3.90;;;3.70;;
11298;SDS011;5705;49.006;12.100;2022-08-14T15:25:33;4.45;;;4.15;;
11298;SDS011;5705;49.006;12.100;2022-08-14T15:28:01;4.57;;;4.28;;
11298;SDS011;5705;49.006;12.100;2022-08-14T15:30:30;4.38;;;4.13;;